Time;durP1;ratioP1;P1;durP2;ratioP2;P2;SDS_P1;SDS_P2;PMS_P1;PMS_P2;Temp;Humidity;BMP_temperature;BMP_pressure;BME280_temperature;BME280_humidity;BME280_pressure;Samples;Min_cycle;Max_cycle;Signal;HPM_P1;HPM_P2
2022/03/06 00:01:26;;;;;;;32.08;14.23;;;-0.80;99.90;;;;;;5113474;27;20038;-71
2022/03/06 00:03:53;;;;;;;35.75;14.63;;;-0.90;99.90;;;;;;5116444;27;20091;-71
2022/03/06 00:06:18;;;;;;;33.65;13.88;;;-0.90;99.90;;;;;;5115607;27;20039;-72
2022/03/06 00:08:44;;;;;;;31.88;14.38;;;-0.90;99.90;;;;;;5116299;27;20531;-70
2022/03/06 00:11:10;;;;;;;20.70;8.60;;;-0.80;99.90;;;;;;5099628;27;20043;-71
2022/03/06 00:13:36;;;;;;;29.30;11.50;;;-0.70;99.90;;;;;;5115859;27;20043;-70
2022/03/06 00:16:01;;;;;;;33.08;13.07;;;-0.70;99.90;;;;;;5114100;27;20035;-70
2022/03/06 00:18:27;;;;;;;31.67;13.15;;;-0.60;99.90;;;;;;5115477;27;20054;-70
2022/03/06 00:20:54;;;;;;;30.95;13.07;;;-0.60;99.90;;;;;;5123690;27;20028;-70
2022/03/06 00:23:20;;;;;;;32.47;13.52;;;-0.60;99.90;;;;;;5114718;27;20054;-70
2022/03/06 00:25:46;;;;;;;34.28;14.70;;;-0.70;99.90;;;;;;5113566;27;20054;-70
2022/03/06 00:28:12;;;;;;;29.27;12.88;;;-0.70;99.90;;;;;;5112690;27;20039;-71
2022/03/06 00:30:37;;;;;;;36.55;15.90;;;-0.60;99.90;;;;;;5112249;27;20100;-71
2022/03/06 00:33:05;;;;;;;37.50;15.68;;;-0.70;99.90;;;;;;5109393;27;20039;-71
2022/03/06 00:35:31;;;;;;;40.00;16.92;;;-0.70;99.90;;;;;;5113534;27;20100;-72
2022/03/06 00:37:57;;;;;;;42.13;16.83;;;-0.80;99.90;;;;;;5110350;27;20364;-71
2022/03/06 00:40:23;;;;;;;38.22;17.05;;;-0.90;99.90;;;;;;5112857;27;20373;-71
2022/03/06 00:42:48;;;;;;;26.88;10.35;;;-0.90;99.90;;;;;;5112780;27;20027;-71
2022/03/06 00:45:14;;;;;;;33.88;14.63;;;-0.90;99.90;;;;;;5096531;27;20367;-70
2022/03/06 00:47:39;;;;;;;29.90;12.20;;;-0.90;99.90;;;;;;5113123;27;20078;-70
2022/03/06 00:50:05;;;;;;;34.25;14.82;;;-0.80;99.90;;;;;;5111918;27;20046;-70
2022/03/06 00:52:31;;;;;;;24.02;9.73;;;-0.70;99.90;;;;;;5112306;27;20062;-70
2022/03/06 00:54:56;;;;;;;40.45;16.55;;;-0.70;99.90;;;;;;5108360;27;20031;-71
2022/03/06 00:57:22;;;;;;;41.80;15.05;;;-0.70;99.90;;;;;;5111947;27;20042;-70
2022/03/06 00:59:47;;;;;;;34.92;12.80;;;-0.70;99.90;;;;;;5108778;27;20552;-71
2022/03/06 01:02:13;;;;;;;41.92;19.00;;;-0.80;99.90;;;;;;5109633;27;20034;-71
2022/03/06 01:04:39;;;;;;;43.78;19.50;;;-0.80;99.90;;;;;;5111434;27;20450;-71
2022/03/06 01:07:05;;;;;;;47.78;19.90;;;-0.90;99.90;;;;;;5112297;27;20050;-71
2022/03/06 01:09:31;;;;;;;43.00;19.38;;;-1.00;99.90;;;;;;5112082;27;20054;-71
2022/03/06 01:11:57;;;;;;;41.95;18.20;;;-1.00;99.90;;;;;;5107988;27;20142;-71
2022/03/06 01:14:22;;;;;;;43.60;18.67;;;-1.10;99.90;;;;;;5110743;27;20042;-71
2022/03/06 01:16:48;;;;;;;46.03;20.40;;;-1.00;99.90;;;;;;5105767;27;20198;-72
2022/03/06 01:19:13;;;;;;;35.00;13.38;;;-1.00;99.90;;;;;;5110365;27;20031;-71
2022/03/06 01:21:39;;;;;;;27.05;12.30;;;-1.00;99.90;;;;;;5109602;27;20061;-72
2022/03/06 01:24:05;;;;;;;28.98;12.07;;;-0.80;99.90;;;;;;5110442;27;20123;-72
2022/03/06 01:26:30;;;;;;;38.10;18.63;;;-0.70;99.90;;;;;;5110505;27;20036;-72
2022/03/06 01:28:56;;;;;;;28.98;11.65;;;-0.70;99.90;;;;;;5110770;27;20168;-72
2022/03/06 01:31:21;;;;;;;35.15;12.93;;;-0.60;99.90;;;;;;5110751;27;20121;-72
2022/03/06 01:33:47;;;;;;;42.95;19.25;;;-0.50;99.90;;;;;;5111069;27;20397;-72
2022/03/06 01:36:12;;;;;;;35.28;15.95;;;-0.40;99.90;;;;;;5091728;27;20050;-72
2022/03/06 01:38:38;;;;;;;42.15;17.05;;;-0.50;99.90;;;;;;5106440;27;20258;-72
2022/03/06 01:41:03;;;;;;;43.17;18.17;;;-0.50;99.90;;;;;;5110067;27;20031;-72
2022/03/06 01:43:29;;;;;;;38.28;15.45;;;-0.60;99.90;;;;;;5107606;27;20039;-72
2022/03/06 01:45:54;;;;;;;38.92;16.35;;;-0.50;99.90;;;;;;5108040;27;20143;-72
2022/03/06 01:48:20;;;;;;;30.60;14.45;;;-0.50;99.90;;;;;;5103093;27;20127;-72
2022/03/06 01:50:46;;;;;;;42.03;17.73;;;-0.40;99.90;;;;;;5105617;27;20374;-73
2022/03/06 01:53:12;;;;;;;38.83;18.35;;;-0.40;99.90;;;;;;5107681;27;20438;-73
2022/03/06 01:55:39;;;;;;;41.40;17.30;;;-0.50;99.90;;;;;;5109223;27;20461;-73
2022/03/06 01:58:07;;;;;;;39.70;16.13;;;-0.50;99.90;;;;;;5107992;27;20034;-73
2022/03/06 02:00:36;;;;;;;40.83;17.30;;;-0.40;99.90;;;;;;5108332;27;20063;-72
2022/03/06 02:03:02;;;;;;;38.42;15.43;;;-0.40;99.90;;;;;;5105316;27;20027;-73
2022/03/06 02:05:28;;;;;;;40.10;17.95;;;-0.40;99.90;;;;;;5109945;27;20507;-72
2022/03/06 02:07:53;;;;;;;40.13;15.75;;;-0.40;99.90;;;;;;5093329;27;20057;-72
2022/03/06 02:10:20;;;;;;;41.83;18.08;;;-0.30;99.90;;;;;;5109340;27;20039;-73
2022/03/06 02:12:46;;;;;;;30.90;13.05;;;-0.30;99.90;;;;;;5109619;27;20035;-73
2022/03/06 02:15:13;;;;;;;30.52;12.95;;;-0.30;99.90;;;;;;5110466;27;20043;-73
2022/03/06 02:17:39;;;;;;;26.00;10.63;;;-0.20;99.90;;;;;;5107571;28;20035;-71
2022/03/06 02:20:17;;;;;;;31.98;14.38;;;-0.10;99.90;;;;;;5109432;28;20084;-73
2022/03/06 02:22:45;;;;;;;36.17;16.25;;;-0.10;99.90;;;;;;5120208;27;20477;-71
2022/03/06 02:25:17;;;;;;;30.63;13.57;;;-0.10;99.90;;;;;;5109798;28;20118;-72
2022/03/06 02:27:43;;;;;;;22.85;10.48;;;0.00;99.90;;;;;;5105945;28;20118;-72
2022/03/06 02:30:12;;;;;;;35.35;14.63;;;-0.10;99.90;;;;;;5106616;28;20098;-72
2022/03/06 02:32:39;;;;;;;29.75;11.85;;;0.00;99.90;;;;;;5105940;27;20126;-73
2022/03/06 02:35:06;;;;;;;35.15;13.13;;;0.00;99.90;;;;;;5112026;28;20486;-72
2022/03/06 02:37:32;;;;;;;35.42;13.75;;;0.00;99.90;;;;;;5105313;28;20046;-72
2022/03/06 02:40:06;;;;;;;33.20;13.25;;;0.00;99.90;;;;;;5109196;28;20027;-73
2022/03/06 02:42:34;;;;;;;44.90;15.73;;;0.10;99.90;;;;;;5109570;27;20043;-73
2022/03/06 02:45:05;;;;;;;35.15;14.60;;;0.10;99.90;;;;;;5109767;28;20042;-72
2022/03/06 02:47:30;;;;;;;35.63;13.07;;;0.10;99.90;;;;;;5109523;27;20050;-72
2022/03/06 02:49:56;;;;;;;28.95;12.13;;;0.10;99.90;;;;;;5105100;27;20046;-72
2022/03/06 02:52:21;;;;;;;34.92;14.32;;;0.10;99.90;;;;;;5114029;27;20491;-72
2022/03/06 02:54:47;;;;;;;31.90;12.20;;;0.20;99.90;;;;;;5114629;27;20042;-73
2022/03/06 02:57:13;;;;;;;24.80;12.20;;;0.20;99.90;;;;;;5112486;27;20497;-73
2022/03/06 02:59:39;;;;;;;39.40;15.80;;;0.10;99.90;;;;;;5113663;27;20050;-73
2022/03/06 03:02:06;;;;;;;23.67;10.98;;;0.20;99.90;;;;;;5109540;27;20492;-72
2022/03/06 03:04:33;;;;;;;42.35;17.75;;;0.10;99.90;;;;;;5114008;27;20043;-73
2022/03/06 03:06:59;;;;;;;41.10;18.85;;;0.10;99.90;;;;;;5113087;27;20043;-73
2022/03/06 03:09:25;;;;;;;41.00;18.85;;;0.00;99.90;;;;;;5112625;27;20500;-73
2022/03/06 03:11:54;;;;;;;35.65;14.02;;;-0.10;99.90;;;;;;5111240;27;20074;-73
2022/03/06 03:14:20;;;;;;;35.05;13.43;;;-0.20;99.90;;;;;;5111976;27;20039;-73
2022/03/06 03:16:46;;;;;;;35.00;14.45;;;-0.20;99.90;;;;;;5105161;27;20394;-74
2022/03/06 03:19:11;;;;;;;43.35;17.13;;;-0.10;99.90;;;;;;5102511;27;20429;-73
2022/03/06 03:21:37;;;;;;;33.80;13.43;;;-0.20;99.90;;;;;;5102337;27;20472;-73
2022/03/06 03:24:03;;;;;;;40.55;16.75;;;-0.30;99.90;;;;;;5116172;27;20385;-73
2022/03/06 03:26:28;;;;;;;40.67;16.60;;;-0.30;99.90;;;;;;5112561;27;20043;-73
2022/03/06 03:28:54;;;;;;;44.17;15.45;;;-0.40;99.90;;;;;;5112366;27;20517;-73
2022/03/06 03:31:20;;;;;;;44.45;17.17;;;-0.50;99.90;;;;;;5112973;27;20050;-73
2022/03/06 03:33:45;;;;;;;33.42;12.07;;;-0.40;99.90;;;;;;5113665;27;20039;-73
2022/03/06 03:36:11;;;;;;;44.00;18.55;;;-0.40;99.90;;;;;;5114052;27;20508;-73
2022/03/06 03:38:39;;;;;;;41.53;18.98;;;-0.50;99.90;;;;;;5113135;27;20047;-73
2022/03/06 03:41:05;;;;;;;39.75;18.17;;;-0.60;99.90;;;;;;5096771;27;20039;-72
2022/03/06 03:43:31;;;;;;;32.00;14.55;;;-0.70;99.90;;;;;;5113578;27;20039;-72
2022/03/06 03:45:59;;;;;;;30.13;10.90;;;-0.80;99.90;;;;;;5113994;27;20035;-73
2022/03/06 03:48:29;;;;;;;33.17;13.77;;;-0.60;99.90;;;;;;5110741;27;20423;-73
2022/03/06 03:50:56;;;;;;;41.13;18.08;;;-0.60;99.90;;;;;;5112759;27;20049;-74
2022/03/06 03:53:22;;;;;;;39.88;16.98;;;-0.60;99.90;;;;;;5112723;27;20045;-74
2022/03/06 03:55:48;;;;;;;35.20;13.18;;;-0.70;99.90;;;;;;5112275;27;20058;-73
2022/03/06 03:58:14;;;;;;;35.92;13.38;;;-0.60;99.90;;;;;;5112815;27;20069;-73
2022/03/06 04:00:40;;;;;;;26.00;10.80;;;-0.50;99.90;;;;;;5112703;27;20615;-73
2022/03/06 04:03:06;;;;;;;28.00;12.80;;;-0.50;99.90;;;;;;5112499;27;20114;-72
2022/03/06 04:05:31;;;;;;;27.38;11.38;;;-0.50;99.90;;;;;;5109556;27;20433;-72
2022/03/06 04:07:57;;;;;;;30.02;12.35;;;-0.40;99.90;;;;;;5107081;27;20046;-73
2022/03/06 04:10:22;;;;;;;29.95;12.70;;;-0.50;99.90;;;;;;5093826;27;20398;-73
2022/03/06 04:12:48;;;;;;;33.95;13.98;;;-0.50;99.90;;;;;;5112571;27;20085;-73
2022/03/06 04:15:13;;;;;;;27.17;11.57;;;-0.50;99.90;;;;;;5107141;27;20125;-73
2022/03/06 04:17:39;;;;;;;28.55;11.38;;;-0.40;99.90;;;;;;5113214;27;20127;-73
2022/03/06 04:20:06;;;;;;;31.38;13.30;;;-0.50;99.90;;;;;;5109610;27;20035;-73
2022/03/06 04:22:33;;;;;;;30.88;12.80;;;-0.50;99.90;;;;;;5112222;27;20059;-73
2022/03/06 04:24:59;;;;;;;29.63;12.27;;;-0.40;99.90;;;;;;5112908;27;20042;-73
2022/03/06 04:27:24;;;;;;;32.35;14.35;;;-0.50;99.90;;;;;;5112073;27;20047;-73
2022/03/06 04:29:50;;;;;;;46.38;16.80;;;-0.50;99.90;;;;;;5113105;27;20039;-73
2022/03/06 04:32:15;;;;;;;35.47;13.77;;;-0.60;99.90;;;;;;5109782;27;20047;-73
2022/03/06 04:34:41;;;;;;;25.02;12.50;;;-0.60;99.90;;;;;;5128080;27;20050;-73
2022/03/06 04:37:07;;;;;;;30.70;14.13;;;-0.50;99.90;;;;;;5112650;27;20034;-73
2022/03/06 04:39:32;;;;;;;38.83;16.33;;;-0.60;99.90;;;;;;5111526;27;20035;-73
2022/03/06 04:41:58;;;;;;;39.45;15.65;;;-0.60;99.90;;;;;;5114600;27;20409;-73
2022/03/06 04:44:23;;;;;;;29.50;14.15;;;-0.70;99.90;;;;;;5114909;27;20079;-73
2022/03/06 04:46:49;;;;;;;40.60;17.20;;;-0.70;99.90;;;;;;5107698;27;20039;-73
2022/03/06 04:49:15;;;;;;;33.33;15.18;;;-0.70;99.90;;;;;;5111013;27;20426;-73
2022/03/06 04:51:41;;;;;;;40.50;17.23;;;-0.60;99.90;;;;;;5112045;27;20054;-74
2022/03/06 04:54:07;;;;;;;32.00;13.25;;;-0.60;99.90;;;;;;5111450;27;20080;-73
2022/03/06 04:56:33;;;;;;;31.83;15.18;;;-0.70;99.90;;;;;;5111914;27;20035;-73
2022/03/06 04:58:59;;;;;;;41.92;18.52;;;-0.70;99.90;;;;;;5112078;27;20043;-73
2022/03/06 05:01:24;;;;;;;43.83;18.45;;;-0.70;99.90;;;;;;5110729;27;20043;-73
2022/03/06 05:03:50;;;;;;;33.78;15.10;;;-0.80;99.90;;;;;;5110551;27;20088;-73
2022/03/06 05:06:15;;;;;;;36.88;15.15;;;-0.70;99.90;;;;;;5111000;27;20075;-73
2022/03/06 05:08:41;;;;;;;20.75;10.13;;;-0.80;99.90;;;;;;5109858;27;20058;-73
2022/03/06 05:11:07;;;;;;;20.80;10.52;;;-0.70;99.90;;;;;;5111235;27;20091;-72
2022/03/06 05:13:33;;;;;;;26.52;11.95;;;-0.60;99.90;;;;;;5112119;27;20034;-73
2022/03/06 05:15:58;;;;;;;30.45;11.45;;;-0.60;99.90;;;;;;5112459;27;20118;-73
2022/03/06 05:18:24;;;;;;;21.58;10.20;;;-0.60;99.90;;;;;;5110009;27;20038;-73
2022/03/06 05:20:50;;;;;;;25.27;10.63;;;-0.50;99.90;;;;;;5111538;27;20066;-73
2022/03/06 05:23:17;;;;;;;28.88;12.40;;;-0.60;99.90;;;;;;5111438;27;20042;-72
2022/03/06 05:25:43;;;;;;;28.02;10.10;;;-0.60;99.90;;;;;;5111935;27;20401;-72
2022/03/06 05:28:09;;;;;;;22.20;9.73;;;-0.60;99.90;;;;;;5110934;27;20042;-73
2022/03/06 05:30:34;;;;;;;25.83;10.50;;;-0.60;99.90;;;;;;5108009;27;20031;-73
2022/03/06 05:33:00;;;;;;;20.67;9.13;;;-0.70;99.90;;;;;;5110913;27;20091;-72
2022/03/06 05:35:25;;;;;;;25.00;9.88;;;-0.60;99.90;;;;;;5111475;27;20043;-72
2022/03/06 05:37:51;;;;;;;27.00;12.23;;;-0.60;99.90;;;;;;5109385;27;20378;-72
2022/03/06 05:40:16;;;;;;;26.65;11.35;;;-0.60;99.90;;;;;;5106441;27;20046;-72
2022/03/06 05:42:42;;;;;;;26.00;11.32;;;-0.70;99.90;;;;;;5111183;27;20134;-73
2022/03/06 05:45:08;;;;;;;23.00;9.77;;;-0.70;99.90;;;;;;5111065;27;20030;-73
2022/03/06 05:47:34;;;;;;;16.00;8.63;;;-0.60;99.90;;;;;;5112357;27;20401;-73
2022/03/06 05:49:59;;;;;;;20.73;9.25;;;-0.70;99.90;;;;;;5092140;27;20043;-72
2022/03/06 05:52:25;;;;;;;21.88;9.00;;;-0.70;99.90;;;;;;5110255;27;20035;-72
2022/03/06 05:54:50;;;;;;;20.83;8.52;;;-0.60;99.90;;;;;;5111587;27;20164;-73
2022/03/06 05:57:16;;;;;;;24.13;10.18;;;-0.60;99.90;;;;;;5109439;27;20041;-73
2022/03/06 05:59:41;;;;;;;19.67;8.55;;;-0.60;99.90;;;;;;5110230;27;20123;-72
2022/03/06 06:02:07;;;;;;;17.75;8.45;;;-0.70;99.90;;;;;;5109808;27;20039;-72
2022/03/06 06:04:32;;;;;;;18.63;8.40;;;-0.60;99.90;;;;;;5108581;27;20031;-73
2022/03/06 06:06:58;;;;;;;21.88;8.43;;;-0.70;99.90;;;;;;5111731;27;20389;-73
2022/03/06 06:09:23;;;;;;;19.45;7.97;;;-0.70;99.90;;;;;;5110520;28;20046;-73
2022/03/06 06:11:49;;;;;;;21.58;10.05;;;-0.60;99.90;;;;;;5112137;28;20032;-73
2022/03/06 06:14:15;;;;;;;26.35;8.95;;;-0.60;99.90;;;;;;5110855;28;20452;-72
2022/03/06 06:16:40;;;;;;;30.25;10.40;;;-0.60;99.90;;;;;;5111535;27;20039;-73
2022/03/06 06:19:06;;;;;;;25.73;11.00;;;-0.60;99.90;;;;;;5110956;27;20039;-72
2022/03/06 06:21:32;;;;;;;25.90;8.90;;;-0.60;99.90;;;;;;5107772;27;20042;-72
2022/03/06 06:23:57;;;;;;;27.20;10.80;;;-0.50;99.90;;;;;;5111459;28;20054;-73
2022/03/06 06:26:24;;;;;;;29.33;12.90;;;-0.50;99.90;;;;;;5111090;28;20486;-73
2022/03/06 06:28:55;;;;;;;24.85;10.73;;;-0.70;99.90;;;;;;5110766;28;20039;-74
2022/03/06 06:31:23;;;;;;;17.50;8.98;;;-0.60;99.90;;;;;;5111328;28;20038;-73
2022/03/06 06:33:49;;;;;;;18.63;8.50;;;-0.50;99.90;;;;;;5110237;28;20054;-72
2022/03/06 06:36:14;;;;;;;19.80;5.85;;;-0.50;99.90;;;;;;5094319;28;20027;-72
2022/03/06 06:38:40;;;;;;;21.67;7.75;;;-0.30;99.90;;;;;;5109010;28;20053;-73
2022/03/06 06:41:06;;;;;;;20.40;8.43;;;-0.20;99.90;;;;;;5111275;28;20035;-73
2022/03/06 06:43:32;;;;;;;16.67;6.93;;;-0.20;99.90;;;;;;5111474;28;20427;-72
2022/03/06 06:45:57;;;;;;;22.65;10.45;;;-0.10;99.90;;;;;;5107521;28;20038;-73
2022/03/06 06:48:23;;;;;;;29.35;9.25;;;-0.10;99.90;;;;;;5111833;28;20340;-72
2022/03/06 06:50:48;;;;;;;20.83;8.05;;;0.00;99.90;;;;;;5110415;28;20042;-72
2022/03/06 06:53:14;;;;;;;17.98;7.68;;;0.00;99.90;;;;;;5110885;28;20062;-73
2022/03/06 06:55:39;;;;;;;23.85;9.50;;;0.00;99.90;;;;;;5111299;28;20023;-73
2022/03/06 06:58:05;;;;;;;20.98;7.70;;;0.10;99.90;;;;;;5111848;28;20035;-72
2022/03/06 07:00:31;;;;;;;16.55;6.07;;;0.20;99.90;;;;;;5109052;28;20039;-73
2022/03/06 07:02:57;;;;;;;21.85;8.77;;;0.30;99.90;;;;;;5094616;28;20038;-72
2022/03/06 07:05:22;;;;;;;17.05;7.60;;;0.30;99.90;;;;;;5107425;28;20043;-73
2022/03/06 07:07:48;;;;;;;23.95;8.18;;;0.30;99.90;;;;;;5111306;28;20045;-72
2022/03/06 07:10:13;;;;;;;20.20;8.18;;;0.30;99.90;;;;;;5108895;28;20122;-73
2022/03/06 07:12:51;;;;;;;23.67;9.10;;;0.40;99.90;;;;;;5111424;28;20046;-73
2022/03/06 07:15:16;;;;;;;20.77;7.00;;;0.30;99.90;;;;;;5110716;28;20119;-72
2022/03/06 07:17:42;;;;;;;17.25;8.30;;;0.40;99.90;;;;;;5111314;28;20069;-72
2022/03/06 07:20:08;;;;;;;15.15;6.57;;;0.50;99.90;;;;;;5109213;27;20058;-72
2022/03/06 07:22:34;;;;;;;17.77;7.47;;;0.50;99.90;;;;;;5105822;28;20043;-72
2022/03/06 07:25:00;;;;;;;18.70;7.30;;;0.60;99.90;;;;;;5111101;28;20168;-73
2022/03/06 07:27:26;;;;;;;19.10;8.98;;;0.60;99.90;;;;;;5107494;27;20624;-72
2022/03/06 07:29:51;;;;;;;19.85;8.45;;;0.60;99.90;;;;;;5112059;28;20325;-72
2022/03/06 07:32:17;;;;;;;18.20;7.22;;;0.50;99.90;;;;;;5111162;28;20047;-74
2022/03/06 07:34:43;;;;;;;13.93;5.15;;;0.60;99.90;;;;;;5112597;27;20092;-73
2022/03/06 07:37:08;;;;;;;17.60;6.25;;;0.60;99.90;;;;;;5113207;27;20378;-72
2022/03/06 07:39:34;;;;;;;22.80;8.57;;;0.60;99.90;;;;;;5114079;27;20031;-73
2022/03/06 07:41:59;;;;;;;20.50;9.68;;;0.60;99.90;;;;;;5113580;27;20044;-73
2022/03/06 07:44:25;;;;;;;21.35;8.63;;;0.60;99.90;;;;;;5114173;27;20051;-71
2022/03/06 07:46:50;;;;;;;21.80;9.00;;;0.60;99.90;;;;;;5110387;27;20066;-73
2022/03/06 07:49:16;;;;;;;24.02;9.98;;;0.50;99.90;;;;;;5112152;27;20382;-73
2022/03/06 07:51:41;;;;;;;23.23;8.20;;;0.50;99.90;;;;;;5114872;27;20034;-73
2022/03/06 07:54:12;;;;;;;17.80;8.25;;;0.50;99.90;;;;;;5095850;27;20468;-72
2022/03/06 07:56:38;;;;;;;22.55;9.63;;;0.70;99.90;;;;;;5113313;27;20481;-72
2022/03/06 07:59:03;;;;;;;21.40;8.35;;;0.80;99.90;;;;;;5111763;27;20100;-71
2022/03/06 08:01:30;;;;;;;14.05;6.10;;;1.00;99.90;;;;;;5114226;27;20402;-72
2022/03/06 08:03:55;;;;;;;25.10;10.38;;;1.00;99.90;;;;;;5115312;27;20042;-70
2022/03/06 08:06:22;;;;;;;15.68;8.18;;;1.10;99.90;;;;;;5114475;27;20061;-72
2022/03/06 08:08:48;;;;;;;19.92;8.60;;;1.10;99.90;;;;;;5114274;27;20043;-70
2022/03/06 08:11:14;;;;;;;13.20;6.05;;;1.20;99.90;;;;;;5114924;27;20085;-72
2022/03/06 08:13:39;;;;;;;23.13;9.63;;;1.20;99.90;;;;;;5112481;27;20117;-70
2022/03/06 08:16:05;;;;;;;23.25;9.02;;;1.40;99.90;;;;;;5110699;27;20110;-69
2022/03/06 08:18:30;;;;;;;16.20;6.75;;;1.40;99.90;;;;;;5114558;27;20056;-69
2022/03/06 08:20:56;;;;;;;21.33;9.70;;;1.40;99.90;;;;;;5111240;27;20043;-70
2022/03/06 08:23:21;;;;;;;19.40;9.25;;;1.50;99.90;;;;;;5114709;27;20039;-72
2022/03/06 08:25:47;;;;;;;23.48;10.05;;;1.50;99.90;;;;;;5113437;27;20043;-71
2022/03/06 08:28:12;;;;;;;17.67;8.50;;;1.60;99.90;;;;;;5114190;27;20440;-72
2022/03/06 08:30:39;;;;;;;21.52;9.50;;;1.60;99.90;;;;;;5113915;27;20069;-72
2022/03/06 08:33:04;;;;;;;17.80;8.95;;;1.70;99.90;;;;;;5110010;27;20053;-71
2022/03/06 08:35:30;;;;;;;20.27;8.82;;;1.70;99.90;;;;;;5108330;27;20035;-72
2022/03/06 08:37:56;;;;;;;23.05;8.90;;;1.80;99.90;;;;;;5114552;27;20031;-71
2022/03/06 08:40:22;;;;;;;18.10;8.00;;;1.90;99.90;;;;;;5113333;27;20039;-70
2022/03/06 08:42:48;;;;;;;20.08;8.50;;;2.00;99.90;;;;;;5096105;27;20102;-69
2022/03/06 08:45:14;;;;;;;15.05;8.23;;;2.00;99.90;;;;;;5092805;27;20176;-69
2022/03/06 08:47:40;;;;;;;19.25;8.88;;;2.10;99.90;;;;;;5111623;27;20031;-69
2022/03/06 08:50:06;;;;;;;16.40;8.02;;;2.20;99.90;;;;;;5112622;27;20090;-69
2022/03/06 08:52:31;;;;;;;17.67;7.53;;;2.20;99.90;;;;;;5109583;27;20175;-69
2022/03/06 08:54:57;;;;;;;14.77;8.18;;;2.30;99.90;;;;;;5096025;27;20160;-73
2022/03/06 08:57:23;;;;;;;15.32;7.45;;;2.30;99.90;;;;;;5111377;27;20482;-68
2022/03/06 08:59:49;;;;;;;15.73;7.32;;;2.40;99.90;;;;;;5106701;27;20031;-68
2022/03/06 09:02:15;;;;;;;15.63;8.07;;;2.40;99.90;;;;;;5094482;27;20043;-70
2022/03/06 09:04:40;;;;;;;14.65;7.57;;;2.50;99.90;;;;;;5113358;27;20059;-70
2022/03/06 09:07:06;;;;;;;16.67;7.35;;;2.50;99.90;;;;;;5113833;27;20042;-70
2022/03/06 09:09:31;;;;;;;20.20;8.40;;;2.50;99.90;;;;;;5112510;27;20043;-71
2022/03/06 09:11:57;;;;;;;16.75;7.53;;;2.60;99.90;;;;;;5113851;27;20058;-74
2022/03/06 09:14:22;;;;;;;16.23;7.85;;;2.70;99.90;;;;;;5109969;27;20046;-70
2022/03/06 09:16:48;;;;;;;14.20;7.28;;;2.80;99.90;;;;;;5111587;27;20035;-71
2022/03/06 09:19:14;;;;;;;14.93;7.75;;;2.80;99.90;;;;;;5108572;27;20080;-73
2022/03/06 09:21:39;;;;;;;19.33;8.13;;;2.80;99.90;;;;;;5113201;27;20027;-74
2022/03/06 09:24:06;;;;;;;15.82;7.70;;;2.80;99.90;;;;;;5112166;27;20043;-75
2022/03/06 09:26:32;;;;;;;15.70;6.75;;;2.90;99.90;;;;;;5112763;27;20078;-73
2022/03/06 09:28:57;;;;;;;15.50;7.40;;;3.00;99.90;;;;;;5112648;27;20127;-74
2022/03/06 09:31:23;;;;;;;15.23;7.55;;;3.00;99.90;;;;;;5100762;27;20581;-74
2022/03/06 09:33:48;;;;;;;15.77;7.47;;;3.10;99.90;;;;;;5109874;27;20031;-72
2022/03/06 09:36:14;;;;;;;18.88;8.10;;;3.20;99.90;;;;;;5113072;27;20039;-71
2022/03/06 09:38:39;;;;;;;18.33;8.45;;;3.20;99.90;;;;;;5107335;27;20409;-71
2022/03/06 09:41:06;;;;;;;15.07;7.75;;;3.20;99.90;;;;;;5113325;27;20054;-73
2022/03/06 09:43:33;;;;;;;17.83;8.57;;;3.40;99.90;;;;;;5113944;27;20492;-74
2022/03/06 09:46:08;;;;;;;16.23;7.57;;;3.40;99.90;;;;;;5113499;27;20066;-70
2022/03/06 09:48:35;;;;;;;16.52;8.43;;;3.50;99.90;;;;;;5113438;27;20043;-70
2022/03/06 09:51:02;;;;;;;11.30;6.55;;;3.60;99.90;;;;;;5112578;27;20031;-72
2022/03/06 09:53:28;;;;;;;16.60;8.10;;;3.60;99.90;;;;;;5113704;27;20142;-71
2022/03/06 09:55:55;;;;;;;16.58;8.35;;;3.70;99.90;;;;;;5112524;27;20031;-69
2022/03/06 09:58:21;;;;;;;15.23;8.15;;;3.70;99.90;;;;;;5113086;27;20053;-72
2022/03/06 10:00:47;;;;;;;9.90;5.25;;;3.70;99.90;;;;;;5112343;27;20125;-73
2022/03/06 10:03:20;;;;;;;16.52;7.97;;;3.80;99.90;;;;;;5113594;27;20043;-71
2022/03/06 10:05:47;;;;;;;19.13;8.20;;;3.90;99.90;;;;;;5113541;27;20038;-73
2022/03/06 10:08:26;;;;;;;16.20;7.00;;;3.90;99.90;;;;;;5113643;27;20088;-69
2022/03/06 10:10:59;;;;;;;15.10;8.45;;;3.90;99.90;;;;;;5113045;27;20394;-74
2022/03/06 10:13:37;;;;;;;13.05;6.82;;;3.90;99.90;;;;;;5113579;27;20490;-70
2022/03/06 10:16:04;;;;;;;15.48;8.05;;;3.90;99.90;;;;;;5114249;27;20134;-70
2022/03/06 10:18:35;;;;;;;13.68;7.22;;;3.90;99.90;;;;;;5106717;28;20130;-70
2022/03/06 10:21:10;;;;;;;14.45;7.68;;;4.00;99.90;;;;;;5094078;28;20116;-68
2022/03/06 10:23:36;;;;;;;15.73;7.72;;;4.10;99.90;;;;;;5093890;28;20043;-70
2022/03/06 10:26:04;;;;;;;13.57;7.88;;;4.10;99.90;;;;;;5093709;28;20131;-68
2022/03/06 10:28:31;;;;;;;13.85;6.65;;;4.20;99.90;;;;;;5093473;28;20050;-72
2022/03/06 10:31:04;;;;;;;14.15;6.60;;;4.30;99.90;;;;;;5111719;28;20032;-71
2022/03/06 10:33:30;;;;;;;15.77;6.20;;;4.40;99.90;;;;;;5093586;28;20044;-73
2022/03/06 10:35:58;;;;;;;12.57;6.05;;;4.50;99.90;;;;;;5093251;28;20044;-68
2022/03/06 10:38:32;;;;;;;16.67;7.07;;;4.50;99.90;;;;;;5109908;28;20040;-72
2022/03/06 10:41:00;;;;;;;7.60;4.45;;;4.50;99.90;;;;;;5092636;28;20120;-72
2022/03/06 10:43:31;;;;;;;7.68;4.80;;;4.60;99.90;;;;;;5092707;28;20517;-72
2022/03/06 10:46:18;;;;;;;11.93;6.22;;;4.60;99.90;;;;;;5109918;28;20046;-70
2022/03/06 10:48:56;;;;;;;10.95;5.82;;;4.60;99.90;;;;;;5113165;28;20493;-73
2022/03/06 10:51:21;;;;;;;11.95;5.60;;;4.60;99.90;;;;;;5113101;28;20051;-70
2022/03/06 10:53:58;;;;;;;13.57;6.00;;;4.70;99.90;;;;;;5113194;28;20669;-70
2022/03/06 10:56:25;;;;;;;13.60;6.47;;;4.70;99.90;;;;;;5113210;28;20043;-69
2022/03/06 10:58:51;;;;;;;13.85;6.57;;;4.70;99.90;;;;;;5110954;28;20027;-72
2022/03/06 11:01:17;;;;;;;11.70;6.25;;;4.80;99.90;;;;;;5113122;28;20038;-70
2022/03/06 11:03:43;;;;;;;15.13;6.10;;;4.80;99.90;;;;;;5094218;28;20051;-70
2022/03/06 11:06:10;;;;;;;9.18;3.33;;;4.90;99.90;;;;;;5106005;28;20054;-72
2022/03/06 11:08:38;;;;;;;8.43;5.45;;;5.10;98.40;;;;;;5108247;27;20039;-71
2022/03/06 11:11:08;;;;;;;10.82;6.07;;;5.20;99.90;;;;;;5117141;27;20046;-69
2022/03/06 11:13:34;;;;;;;10.80;5.43;;;5.20;97.30;;;;;;5117310;27;20039;-73
2022/03/06 11:16:03;;;;;;;7.10;4.43;;;5.20;99.90;;;;;;5101066;28;20122;-75
2022/03/06 11:18:30;;;;;;;10.88;6.07;;;5.40;97.00;;;;;;5100149;27;20039;-74
2022/03/06 11:20:58;;;;;;;10.85;4.78;;;5.40;99.90;;;;;;5115477;27;20039;-74
2022/03/06 11:23:37;;;;;;;8.48;5.32;;;5.50;96.80;;;;;;5116809;27;20039;-71
2022/03/06 11:26:15;;;;;;;9.88;4.40;;;5.60;95.50;;;;;;5111064;27;20046;-72
2022/03/06 11:28:55;;;;;;;5.93;3.55;;;5.60;84.30;;;;;;5095904;27;20043;-74
2022/03/06 11:31:22;;;;;;;11.15;5.72;;;5.70;78.60;;;;;;5108895;28;20557;-71
2022/03/06 11:34:03;;;;;;;7.75;4.95;;;5.60;93.20;;;;;;5104493;27;20035;-70
2022/03/06 11:36:30;;;;;;;13.43;5.70;;;5.60;96.40;;;;;;5097065;28;20490;-68
2022/03/06 11:38:57;;;;;;;11.00;5.47;;;5.70;76.40;;;;;;5102114;27;20039;-68
2022/03/06 11:41:26;;;;;;;13.40;5.15;;;5.70;93.00;;;;;;5113963;27;20069;-69
2022/03/06 11:43:54;;;;;;;6.22;3.92;;;5.70;87.80;;;;;;5113530;27;20076;-69
2022/03/06 11:46:23;;;;;;;7.55;3.97;;;5.80;76.10;;;;;;5115598;27;20108;-69
2022/03/06 11:48:49;;;;;;;9.23;4.78;;;5.70;85.60;;;;;;5110657;27;20134;-69
2022/03/06 11:51:14;;;;;;;7.70;3.47;;;5.80;74.60;;;;;;5111071;27;20118;-69
2022/03/06 11:54:03;;;;;;;13.50;5.35;;;5.80;75.40;;;;;;5114749;27;20043;-69
2022/03/06 11:56:32;;;;;;;10.75;5.10;;;5.70;90.40;;;;;;5113697;27;20039;-67
2022/03/06 11:59:01;;;;;;;7.53;4.03;;;5.80;95.40;;;;;;5113572;27;20046;-70
2022/03/06 12:01:41;;;;;;;6.88;3.50;;;5.90;88.30;;;;;;5114426;27;20071;-68
2022/03/06 12:04:07;;;;;;;10.85;3.67;;;6.00;84.70;;;;;;5113372;27;20043;-68
2022/03/06 12:06:43;;;;;;;10.90;5.15;;;6.00;80.70;;;;;;5114332;27;20054;-70
2022/03/06 12:09:14;;;;;;;9.35;3.85;;;6.00;84.40;;;;;;5113704;27;20050;-69
2022/03/06 12:11:41;;;;;;;11.55;5.65;;;6.00;90.00;;;;;;5113212;27;20095;-70
2022/03/06 12:14:16;;;;;;;10.40;4.65;;;6.00;97.40;;;;;;5114391;27;20071;-71
2022/03/06 12:17:00;;;;;;;9.70;5.43;;;6.10;88.60;;;;;;5113052;27;20039;-68
2022/03/06 12:19:26;;;;;;;11.15;4.80;;;6.00;90.20;;;;;;5111256;27;20371;-69
2022/03/06 12:21:52;;;;;;;8.85;3.85;;;5.80;92.90;;;;;;5112464;27;20042;-70
2022/03/06 12:24:29;;;;;;;13.63;3.47;;;5.80;94.70;;;;;;5113687;27;20038;-69
2022/03/06 12:26:55;;;;;;;14.63;5.20;;;5.90;95.60;;;;;;5114201;27;20126;-69
2022/03/06 12:29:45;;;;;;;8.55;4.15;;;6.00;94.20;;;;;;5113422;27;20548;-69
2022/03/06 12:32:29;;;;;;;9.60;5.25;;;6.10;93.00;;;;;;5097432;27;20111;-69
2022/03/06 12:35:00;;;;;;;10.15;5.72;;;6.20;89.10;;;;;;5114087;27;20063;-70
2022/03/06 12:37:28;;;;;;;9.30;5.05;;;6.10;99.40;;;;;;5115156;27;20041;-69